createdAt,value
2023-01-23T00:00:32.204Z,118.80
2023-01-23T00:01:32.193Z,120.90
2023-01-23T00:02:32.226Z,100.20
2023-01-23T00:03:32.183Z,96.00
2023-01-23T00:04:32.144Z,96.70
2023-01-23T00:05:32.134Z,91.90
2023-01-23T00:06:32.131Z,101.00
2023-01-23T00:07:32.116Z,98.40
2023-01-23T00:08:32.106Z,100.70
2023-01-23T00:09:32.085Z,82.70
2023-01-23T00:10:32.065Z,79.20
2023-01-23T00:11:32.097Z,89.80
2023-01-23T00:12:32.057Z,91.80
2023-01-23T00:13:32.043Z,91.30
2023-01-23T00:14:32.014Z,105.60
2023-01-23T00:15:32.026Z,86.80
2023-01-23T00:16:31.994Z,81.10
2023-01-23T00:17:31.983Z,103.70
2023-01-23T00:18:31.972Z,112.30
2023-01-23T00:19:31.951Z,91.10
2023-01-23T00:20:31.955Z,89.30
2023-01-23T00:21:31.925Z,86.60
2023-01-23T00:22:31.923Z,94.90
2023-01-23T00:23:31.925Z,93.60
2023-01-23T00:24:31.882Z,91.50
2023-01-23T00:25:31.870Z,99.60
2023-01-23T00:26:31.856Z,95.50
2023-01-23T00:27:31.857Z,125.40
2023-01-23T00:28:31.869Z,98.30
2023-01-23T00:29:31.826Z,97.20
2023-01-23T00:30:31.839Z,98.30
2023-01-23T00:31:31.844Z,131.70
2023-01-23T00:32:31.782Z,106.50
2023-01-23T00:33:31.791Z,94.00
2023-01-23T00:34:31.754Z,88.20
2023-01-23T00:35:31.742Z,100.30
2023-01-23T00:36:31.730Z,87.20
2023-01-23T00:37:31.722Z,123.50
2023-01-23T00:38:31.727Z,105.40
2023-01-23T00:39:31.688Z,97.50
2023-01-23T00:40:31.678Z,117.40
2023-01-23T00:41:31.680Z,126.60
2023-01-23T00:42:31.653Z,152.70
2023-01-23T00:43:31.662Z,107.10
2023-01-23T00:44:31.616Z,113.10
2023-01-23T00:45:32.294Z,111.20
2023-01-23T00:46:31.676Z,101.30
2023-01-23T00:47:31.583Z,112.50
2023-01-23T00:48:31.590Z,109.20
2023-01-23T00:49:31.554Z,107.60
2023-01-23T00:50:31.561Z,116.10
2023-01-23T00:51:31.525Z,114.00
2023-01-23T00:52:31.519Z,121.90
2023-01-23T00:53:31.518Z,106.80
2023-01-23T00:54:31.493Z,116.80
2023-01-23T00:55:31.488Z,96.00
2023-01-23T00:56:31.482Z,104.70
2023-01-23T00:57:31.450Z,156.70
2023-01-23T00:58:31.462Z,97.40
2023-01-23T00:59:31.427Z,99.80
2023-01-23T01:00:31.423Z,93.80
2023-01-23T01:01:31.480Z,86.40
2023-01-23T01:02:31.429Z,104.70
2023-01-23T01:03:31.388Z,112.70
2023-01-23T01:04:31.371Z,129.50
2023-01-23T01:05:31.345Z,110.20
2023-01-23T01:06:31.333Z,99.10
2023-01-23T01:07:31.321Z,102.00
2023-01-23T01:08:31.333Z,81.20
2023-01-23T01:09:31.289Z,93.50
2023-01-23T01:10:31.289Z,100.80
2023-01-23T01:11:31.271Z,116.20
2023-01-23T01:12:31.271Z,87.10
2023-01-23T01:13:31.261Z,113.00
2023-01-23T01:14:31.231Z,95.90
2023-01-23T01:15:31.217Z,89.70
2023-01-23T01:16:31.287Z,90.10
2023-01-23T01:17:31.187Z,141.50
2023-01-23T01:18:31.207Z,128.90
2023-01-23T01:19:31.175Z,116.90
2023-01-23T01:20:31.158Z,105.10
2023-01-23T01:21:31.162Z,104.30
2023-01-23T01:22:31.144Z,120.40
2023-01-23T01:23:31.133Z,124.20
2023-01-23T01:24:31.109Z,107.60
2023-01-23T01:25:31.091Z,86.00
2023-01-23T01:26:31.086Z,98.80
2023-01-23T01:27:31.056Z,118.90
2023-01-23T01:28:31.077Z,88.70
2023-01-23T01:29:31.041Z,109.20
2023-01-23T01:30:31.033Z,101.90
2023-01-23T01:31:31.126Z,88.50
2023-01-23T01:32:31.004Z,97.20
2023-01-23T01:33:30.987Z,74.40
2023-01-23T01:34:30.978Z,73.00
2023-01-23T01:35:30.966Z,84.70
2023-01-23T01:36:30.949Z,85.00
2023-01-23T01:37:30.931Z,69.50
2023-01-23T01:38:30.933Z,80.60
2023-01-23T01:39:30.904Z,82.40
2023-01-23T01:40:30.906Z,90.50
2023-01-23T01:41:30.883Z,89.90
2023-01-23T01:42:30.870Z,97.10
2023-01-23T01:43:30.862Z,97.10
2023-01-23T01:44:30.851Z,90.50
2023-01-23T01:45:30.831Z,100.30
2023-01-23T01:46:30.863Z,97.40
2023-01-23T01:47:30.809Z,89.70
2023-01-23T01:48:30.807Z,106.20
2023-01-23T01:49:30.772Z,98.30
2023-01-23T01:50:30.775Z,103.90
2023-01-23T01:51:30.751Z,88.90
2023-01-23T01:52:30.749Z,89.50
2023-01-23T01:53:30.740Z,88.50
2023-01-23T01:54:30.785Z,91.00
2023-01-23T01:55:30.699Z,84.60
2023-01-23T01:56:30.692Z,79.50
2023-01-23T01:57:30.681Z,78.70
2023-01-23T01:58:30.668Z,80.50
2023-01-23T01:59:30.649Z,73.90
2023-01-23T02:00:30.660Z,76.10
2023-01-23T02:01:30.627Z,79.50
2023-01-23T02:02:30.618Z,69.30
2023-01-23T02:03:30.606Z,69.60
2023-01-23T02:04:30.591Z,72.30
2023-01-23T02:05:30.579Z,67.10
2023-01-23T02:06:30.566Z,69.50
2023-01-23T02:07:30.549Z,64.60
2023-01-23T02:08:30.546Z,67.00
2023-01-23T02:09:30.524Z,64.10
2023-01-23T02:10:30.510Z,65.50
2023-01-23T02:11:30.508Z,63.90
2023-01-23T02:12:30.485Z,69.40
2023-01-23T02:13:30.501Z,63.30
2023-01-23T02:14:30.467Z,83.40
2023-01-23T02:15:30.435Z,69.10
2023-01-23T02:16:30.451Z,59.60
2023-01-23T02:17:30.404Z,67.10
2023-01-23T02:18:30.417Z,64.00
2023-01-23T02:19:30.400Z,62.80
2023-01-23T02:20:30.374Z,64.90
2023-01-23T02:21:30.361Z,61.80
2023-01-23T02:22:30.342Z,62.30
2023-01-23T02:23:30.352Z,54.30
2023-01-23T02:24:30.324Z,56.80
2023-01-23T02:25:30.308Z,55.80
2023-01-23T02:26:30.302Z,63.30
2023-01-23T02:27:30.290Z,58.90
2023-01-23T02:28:30.306Z,63.60
2023-01-23T02:29:30.261Z,68.50
2023-01-23T02:30:30.250Z,58.60
2023-01-23T02:31:30.354Z,56.90
2023-01-23T02:32:30.229Z,71.20
2023-01-23T02:33:30.632Z,63.30
2023-01-23T02:34:30.197Z,55.10
2023-01-23T02:35:30.186Z,71.10
2023-01-23T02:36:30.178Z,66.90
2023-01-23T02:37:30.150Z,73.40
2023-01-23T02:38:30.148Z,63.40
2023-01-23T02:39:30.146Z,60.70
2023-01-23T02:40:30.121Z,69.10
2023-01-23T02:41:30.098Z,66.00
2023-01-23T02:42:30.087Z,59.20
2023-01-23T02:43:30.092Z,60.80
2023-01-23T02:44:30.074Z,59.80
2023-01-23T02:45:30.118Z,55.90
2023-01-23T02:46:30.040Z,59.00
2023-01-23T02:47:30.032Z,58.10
2023-01-23T02:48:30.030Z,59.70
2023-01-23T02:49:30.003Z,60.80
2023-01-23T02:50:29.995Z,54.40
2023-01-23T02:51:29.965Z,52.60
2023-01-23T02:52:29.956Z,52.80
2023-01-23T02:53:29.957Z,52.60
2023-01-23T02:54:29.933Z,58.20
2023-01-23T02:55:29.913Z,61.10
2023-01-23T02:56:29.913Z,58.40
2023-01-23T02:57:29.885Z,64.00
2023-01-23T02:58:29.884Z,71.30
2023-01-23T02:59:29.864Z,73.70
2023-01-23T03:00:29.853Z,67.50
2023-01-23T03:01:29.852Z,77.90
2023-01-23T03:02:29.930Z,76.40
2023-01-23T03:03:29.833Z,65.00
2023-01-23T03:04:29.802Z,78.10
2023-01-23T03:05:29.785Z,86.60
2023-01-23T03:06:29.773Z,79.90
2023-01-23T03:07:29.752Z,72.30
2023-01-23T03:08:29.754Z,83.90
2023-01-23T03:09:29.737Z,73.80
2023-01-23T03:10:29.729Z,73.00
2023-01-23T03:11:29.713Z,57.50
2023-01-23T03:12:29.707Z,66.30
2023-01-23T03:13:29.707Z,71.10
2023-01-23T03:14:29.677Z,70.80
2023-01-23T03:15:29.658Z,71.60
2023-01-23T03:16:29.718Z,83.00
2023-01-23T03:17:29.648Z,77.00
2023-01-23T03:18:29.633Z,72.30
2023-01-23T03:19:29.601Z,85.20
2023-01-23T03:20:29.600Z,73.20
2023-01-23T03:21:29.569Z,75.10
2023-01-23T03:22:29.572Z,76.50
2023-01-23T03:23:29.558Z,95.30
2023-01-23T03:24:29.539Z,74.60
2023-01-23T03:25:29.528Z,71.60
2023-01-23T03:26:29.530Z,81.00
2023-01-23T03:27:29.496Z,92.20
2023-01-23T03:28:29.496Z,81.30
2023-01-23T03:29:29.471Z,80.20
2023-01-23T03:30:29.461Z,81.60
2023-01-23T03:31:29.481Z,68.20
2023-01-23T03:32:29.435Z,74.80
2023-01-23T03:33:29.443Z,75.10
2023-01-23T03:34:29.428Z,74.10
2023-01-23T03:35:29.391Z,69.10
2023-01-23T03:36:29.402Z,72.30
2023-01-23T03:37:29.365Z,73.80
2023-01-23T03:38:29.372Z,76.70
2023-01-23T03:39:29.341Z,89.90
2023-01-23T03:40:29.324Z,86.60
2023-01-23T03:41:29.321Z,87.30
2023-01-23T03:42:29.309Z,79.10
2023-01-23T03:43:29.302Z,86.10
2023-01-23T03:44:29.273Z,82.00
2023-01-23T03:45:29.303Z,83.50
2023-01-23T03:46:29.253Z,89.80
2023-01-23T03:47:29.233Z,84.40
2023-01-23T03:48:29.243Z,73.40
2023-01-23T03:49:29.207Z,85.10
2023-01-23T03:50:29.209Z,83.90
2023-01-23T03:51:29.181Z,77.60
2023-01-23T03:52:29.173Z,77.20
2023-01-23T03:53:29.172Z,74.00
2023-01-23T03:54:29.142Z,69.00
2023-01-23T03:55:29.130Z,77.90
2023-01-23T03:56:29.137Z,81.00
2023-01-23T03:57:29.100Z,79.30
2023-01-23T03:58:29.100Z,82.20
2023-01-23T03:59:29.080Z,71.70
2023-01-23T04:00:29.068Z,71.80
2023-01-23T04:01:29.072Z,72.60
2023-01-23T04:02:29.133Z,71.10
2023-01-23T04:03:29.040Z,74.00
2023-01-23T04:04:29.028Z,71.10
2023-01-23T04:05:29.006Z,70.50
2023-01-23T04:06:28.988Z,77.30
2023-01-23T04:07:28.969Z,66.10
2023-01-23T04:08:28.979Z,72.30
2023-01-23T04:09:28.951Z,66.50
2023-01-23T04:10:28.949Z,62.40
2023-01-23T04:11:28.917Z,67.00
2023-01-23T04:12:28.916Z,69.40
2023-01-23T04:13:28.897Z,71.20
2023-01-23T04:14:28.886Z,73.60
2023-01-23T04:15:28.871Z,71.30
2023-01-23T04:16:28.999Z,70.60
2023-01-23T04:17:28.835Z,70.90
2023-01-23T04:18:28.865Z,72.10
2023-01-23T04:19:28.820Z,67.20
2023-01-23T04:20:28.806Z,74.20
2023-01-23T04:21:28.808Z,80.60
2023-01-23T04:22:28.785Z,78.90
2023-01-23T04:23:28.773Z,82.50
2023-01-23T04:24:28.762Z,75.80
2023-01-23T04:25:28.734Z,91.90
2023-01-23T04:26:28.727Z,84.30
2023-01-23T04:27:28.714Z,87.40
2023-01-23T04:28:28.705Z,98.90
2023-01-23T04:29:28.688Z,87.70
2023-01-23T04:30:28.723Z,86.10
2023-01-23T04:31:28.731Z,83.60
2023-01-23T04:32:28.651Z,79.60
2023-01-23T04:33:28.645Z,86.00
2023-01-23T04:34:28.625Z,92.90
2023-01-23T04:35:28.604Z,91.90
2023-01-23T04:36:28.599Z,89.90
2023-01-23T04:37:28.580Z,84.20
2023-01-23T04:38:28.599Z,95.50
2023-01-23T04:39:28.559Z,91.20
2023-01-23T04:40:28.541Z,92.00
2023-01-23T04:41:28.540Z,90.80
2023-01-23T04:42:28.520Z,94.10
2023-01-23T04:43:28.519Z,82.30
2023-01-23T04:44:28.502Z,87.00
2023-01-23T04:45:28.477Z,84.90
2023-01-23T04:46:28.469Z,89.60
2023-01-23T04:47:28.461Z,91.30
2023-01-23T04:48:28.449Z,87.70
2023-01-23T04:49:28.418Z,94.00
2023-01-23T04:50:28.419Z,80.70
2023-01-23T04:51:28.485Z,83.80
2023-01-23T04:52:28.387Z,78.50
2023-01-23T04:53:28.378Z,87.10
2023-01-23T04:54:28.361Z,98.60
2023-01-23T04:55:28.340Z,75.10
2023-01-23T04:56:28.336Z,83.30
2023-01-23T04:57:28.335Z,77.90
2023-01-23T04:58:28.341Z,83.50
2023-01-23T04:59:28.287Z,89.40
2023-01-23T05:00:28.285Z,78.60
2023-01-23T05:01:28.298Z,85.20
2023-01-23T05:02:28.316Z,78.20
2023-01-23T05:03:28.255Z,80.20
2023-01-23T05:04:28.236Z,86.20
2023-01-23T05:05:28.227Z,93.20
2023-01-23T05:06:28.209Z,82.80
2023-01-23T05:07:28.199Z,86.10
2023-01-23T05:08:28.188Z,87.20
2023-01-23T05:09:28.168Z,87.80
2023-01-23T05:10:28.160Z,73.60
2023-01-23T05:11:28.141Z,77.10
2023-01-23T05:12:28.133Z,79.20
2023-01-23T05:13:28.123Z,87.00
2023-01-23T05:14:28.105Z,79.90
2023-01-23T05:15:30.058Z,78.00
2023-01-23T05:16:28.084Z,78.00
2023-01-23T05:17:28.074Z,87.40
2023-01-23T05:18:28.062Z,84.70
2023-01-23T05:19:28.049Z,80.20
2023-01-23T05:20:28.021Z,88.50
2023-01-23T05:21:28.016Z,78.10
2023-01-23T05:22:27.991Z,74.60
2023-01-23T05:23:28.002Z,85.10
2023-01-23T05:24:27.961Z,88.30
2023-01-23T05:25:27.972Z,87.00
2023-01-23T05:26:27.942Z,90.80
2023-01-23T05:27:27.938Z,83.20
2023-01-23T05:28:27.928Z,77.40
2023-01-23T05:29:27.913Z,83.70
2023-01-23T05:30:27.928Z,83.70
2023-01-23T05:31:27.975Z,86.90
2023-01-23T05:32:27.870Z,80.80
2023-01-23T05:33:27.863Z,83.20
2023-01-23T05:34:27.837Z,78.70
2023-01-23T05:35:27.828Z,92.10
2023-01-23T05:36:27.823Z,83.10
2023-01-23T05:37:27.800Z,75.70
2023-01-23T05:38:27.802Z,83.20
2023-01-23T05:39:27.778Z,82.10
2023-01-23T05:40:27.756Z,84.20
2023-01-23T05:41:27.750Z,86.90
2023-01-23T05:42:27.738Z,79.30
2023-01-23T05:43:27.734Z,83.80
2023-01-23T05:44:27.713Z,80.80
2023-01-23T05:45:27.707Z,88.40
2023-01-23T05:46:27.780Z,87.40
2023-01-23T05:47:27.681Z,85.00
2023-01-23T05:48:27.664Z,81.90
2023-01-23T05:49:27.650Z,86.40
2023-01-23T05:50:27.634Z,90.60
2023-01-23T05:51:27.625Z,90.30
2023-01-23T05:52:27.610Z,88.80
2023-01-23T05:53:27.626Z,87.70
2023-01-23T05:54:27.579Z,93.60
2023-01-23T05:55:27.563Z,83.40
2023-01-23T05:56:27.577Z,79.80
2023-01-23T05:57:27.549Z,79.50
2023-01-23T05:58:27.543Z,83.10
2023-01-23T05:59:27.516Z,88.30
2023-01-23T06:00:27.493Z,82.30
2023-01-23T06:01:27.497Z,78.60
2023-01-23T06:02:27.508Z,76.60
2023-01-23T06:03:27.517Z,95.90
2023-01-23T06:04:27.458Z,95.20
2023-01-23T06:05:27.431Z,94.30
2023-01-23T06:06:27.418Z,95.20
2023-01-23T06:07:27.422Z,91.60
2023-01-23T06:08:27.397Z,94.30
2023-01-23T06:09:27.395Z,94.30
2023-01-23T06:10:27.371Z,105.00
2023-01-23T06:11:27.367Z,107.10
2023-01-23T06:12:27.348Z,99.90
2023-01-23T06:13:27.346Z,98.20
2023-01-23T06:14:27.310Z,101.00
2023-01-23T06:15:27.300Z,107.50
2023-01-23T06:16:27.288Z,104.30
2023-01-23T06:17:27.280Z,113.80
2023-01-23T06:18:27.275Z,98.70
2023-01-23T06:19:27.264Z,106.10
2023-01-23T06:20:27.234Z,104.80
2023-01-23T06:21:27.228Z,108.80
2023-01-23T06:22:27.209Z,96.70
2023-01-23T06:23:27.215Z,87.30
2023-01-23T06:24:27.190Z,86.90
2023-01-23T06:25:27.182Z,93.10
2023-01-23T06:26:27.157Z,90.70
2023-01-23T06:27:27.156Z,99.70
2023-01-23T06:28:27.150Z,108.70
2023-01-23T06:29:27.132Z,105.50
2023-01-23T06:30:27.106Z,102.50
2023-01-23T06:31:27.201Z,95.10
2023-01-23T06:32:27.087Z,93.50
2023-01-23T06:33:27.153Z,90.40
2023-01-23T06:34:27.061Z,100.70
2023-01-23T06:35:27.043Z,108.70
2023-01-23T06:36:27.021Z,104.90
2023-01-23T06:37:27.013Z,98.70
2023-01-23T06:38:27.026Z,88.50
2023-01-23T06:39:27.016Z,87.90
2023-01-23T06:40:26.974Z,92.00
2023-01-23T06:41:26.963Z,88.30
2023-01-23T06:42:26.955Z,114.20
2023-01-23T06:43:26.957Z,94.90
2023-01-23T06:44:26.920Z,103.70
2023-01-23T06:45:26.916Z,102.20
2023-01-23T06:46:26.942Z,98.20
2023-01-23T06:47:26.881Z,107.50
2023-01-23T06:48:26.885Z,98.30
2023-01-23T06:49:26.859Z,98.20
2023-01-23T06:50:26.840Z,98.40
2023-01-23T06:51:26.871Z,94.20
2023-01-23T06:52:26.817Z,95.10
2023-01-23T06:53:26.820Z,107.10
2023-01-23T06:54:26.790Z,103.90
2023-01-23T06:55:26.785Z,90.00
2023-01-23T06:56:26.763Z,99.10
2023-01-23T06:57:26.767Z,87.40
2023-01-23T06:58:26.747Z,86.60
2023-01-23T06:59:26.734Z,99.90
2023-01-23T07:00:26.709Z,100.10
2023-01-23T07:01:26.756Z,111.00
2023-01-23T07:02:26.704Z,102.30
2023-01-23T07:03:26.699Z,114.30
2023-01-23T07:04:26.669Z,108.10
2023-01-23T07:05:26.678Z,99.40
2023-01-23T07:06:26.632Z,114.00
2023-01-23T07:07:26.628Z,103.20
2023-01-23T07:08:26.664Z,97.70
2023-01-23T07:09:26.598Z,104.90
2023-01-23T07:10:26.583Z,114.10
2023-01-23T07:11:26.563Z,118.10
2023-01-23T07:12:26.543Z,98.80
2023-01-23T07:13:26.555Z,109.40
2023-01-23T07:14:26.529Z,98.70
2023-01-23T07:15:26.514Z,96.20
2023-01-23T07:16:26.547Z,100.00
2023-01-23T07:17:26.505Z,84.50
2023-01-23T07:18:26.492Z,109.50
2023-01-23T07:19:26.466Z,108.20
2023-01-23T07:20:26.444Z,107.10
2023-01-23T07:21:26.438Z,112.30
2023-01-23T07:22:26.427Z,113.10
2023-01-23T07:23:26.428Z,110.60
2023-01-23T07:24:26.393Z,105.00
2023-01-23T07:25:26.393Z,110.60
2023-01-23T07:26:26.368Z,99.90
2023-01-23T07:27:26.371Z,95.00
2023-01-23T07:28:26.372Z,109.70
2023-01-23T07:29:26.336Z,110.60
2023-01-23T07:30:26.364Z,101.10
2023-01-23T07:31:26.403Z,112.10
2023-01-23T07:32:26.302Z,104.90
2023-01-23T07:33:26.303Z,108.50
2023-01-23T07:34:26.260Z,102.00
2023-01-23T07:35:26.283Z,109.30
2023-01-23T07:36:26.264Z,116.70
2023-01-23T07:37:26.241Z,104.40
2023-01-23T07:38:26.223Z,114.50
2023-01-23T07:39:26.210Z,107.50
2023-01-23T07:40:26.179Z,103.10
2023-01-23T07:41:26.185Z,104.50
2023-01-23T07:42:26.160Z,107.50
2023-01-23T07:43:26.175Z,120.40
2023-01-23T07:44:26.146Z,118.10
2023-01-23T07:45:26.137Z,117.00
2023-01-23T07:46:26.136Z,121.50
2023-01-23T07:47:26.097Z,111.80
2023-01-23T07:48:26.115Z,115.20
2023-01-23T07:49:26.068Z,105.00
2023-01-23T07:50:26.055Z,103.40
2023-01-23T07:51:26.114Z,106.60
2023-01-23T07:52:26.047Z,105.60
2023-01-23T07:53:26.025Z,98.50
2023-01-23T07:54:26.023Z,109.60
2023-01-23T07:55:26.010Z,107.40
2023-01-23T07:56:25.978Z,110.50
2023-01-23T07:57:25.996Z,108.00
2023-01-23T07:58:25.962Z,113.60
2023-01-23T07:59:25.954Z,104.40
2023-01-23T08:00:29.220Z,119.80
2023-01-23T08:01:25.921Z,100.10
2023-01-23T08:02:25.907Z,98.70
2023-01-23T08:03:25.901Z,98.20
2023-01-23T08:04:25.887Z,110.10
2023-01-23T08:05:25.865Z,110.00
2023-01-23T08:06:25.843Z,121.10
2023-01-23T08:07:25.833Z,116.20
2023-01-23T08:08:25.835Z,94.90
2023-01-23T08:09:25.813Z,97.90
2023-01-23T08:10:25.795Z,114.00
2023-01-23T08:11:25.791Z,107.10
2023-01-23T08:12:25.774Z,111.30
2023-01-23T08:13:25.778Z,101.60
2023-01-23T08:14:25.742Z,96.40
2023-01-23T08:15:25.741Z,114.60
2023-01-23T08:16:25.764Z,128.10
2023-01-23T08:17:25.719Z,122.10
2023-01-23T08:18:25.701Z,147.50
2023-01-23T08:19:25.680Z,121.30
2023-01-23T08:20:25.686Z,116.70
2023-01-23T08:21:25.663Z,125.70
2023-01-23T08:22:25.652Z,126.50
2023-01-23T08:23:25.643Z,122.10
2023-01-23T08:24:25.617Z,126.50
2023-01-23T08:25:25.610Z,128.30
2023-01-23T08:26:25.593Z,122.10
2023-01-23T08:27:25.580Z,120.20
2023-01-23T08:28:25.568Z,119.70
2023-01-23T08:29:25.548Z,125.70
2023-01-23T08:30:25.551Z,128.40
2023-01-23T08:31:25.586Z,122.40
2023-01-23T08:32:25.519Z,128.70
2023-01-23T08:33:25.560Z,148.30
2023-01-23T08:34:25.498Z,136.80
2023-01-23T08:35:25.485Z,131.80
2023-01-23T08:36:25.497Z,157.20
2023-01-23T08:37:25.456Z,124.50
2023-01-23T08:38:25.464Z,128.20
2023-01-23T08:39:25.437Z,131.90
2023-01-23T08:40:25.445Z,125.20
2023-01-23T08:41:25.395Z,126.50
2023-01-23T08:42:25.388Z,126.50
2023-01-23T08:43:25.385Z,136.70
2023-01-23T08:44:25.364Z,137.90
2023-01-23T08:45:25.378Z,135.60
2023-01-23T08:46:25.334Z,143.90
2023-01-23T08:47:25.328Z,134.50
2023-01-23T08:48:25.312Z,126.80
2023-01-23T08:49:25.306Z,133.90
2023-01-23T08:50:25.309Z,129.00
2023-01-23T08:51:25.336Z,118.20
2023-01-23T08:52:25.242Z,126.50
2023-01-23T08:53:25.276Z,132.10
2023-01-23T08:54:25.224Z,126.10
2023-01-23T08:55:25.210Z,137.00
2023-01-23T08:56:25.211Z,139.60
2023-01-23T08:57:25.195Z,133.70
2023-01-23T08:58:25.182Z,129.90
2023-01-23T08:59:25.171Z,124.00
2023-01-23T09:00:25.156Z,133.00
2023-01-23T09:01:25.225Z,134.70
2023-01-23T09:02:25.154Z,126.80
2023-01-23T09:03:25.135Z,119.50
2023-01-23T09:04:25.098Z,124.50
2023-01-23T09:05:25.091Z,127.80
2023-01-23T09:06:25.067Z,123.40
2023-01-23T09:07:25.068Z,118.90
2023-01-23T09:08:25.051Z,108.90
2023-01-23T09:09:25.058Z,109.10
2023-01-23T09:10:25.968Z,118.10
2023-01-23T09:11:25.007Z,113.50
2023-01-23T09:12:24.990Z,112.50
2023-01-23T09:13:24.998Z,109.80
2023-01-23T09:14:24.957Z,105.10
2023-01-23T09:15:24.952Z,102.00
2023-01-23T09:16:24.981Z,104.90
2023-01-23T09:17:24.930Z,106.50
2023-01-23T09:18:24.917Z,96.00
2023-01-23T09:19:24.900Z,95.60
2023-01-23T09:20:24.909Z,92.80
2023-01-23T09:21:24.876Z,93.30
2023-01-23T09:22:24.881Z,93.60
2023-01-23T09:23:24.855Z,90.50
2023-01-23T09:24:24.834Z,90.70
2023-01-23T09:25:24.824Z,91.60
2023-01-23T09:26:24.823Z,86.90
2023-01-23T09:27:24.797Z,86.30
2023-01-23T09:28:24.796Z,85.40
2023-01-23T09:29:24.759Z,86.30
2023-01-23T09:30:24.934Z,81.10
2023-01-23T09:31:24.761Z,84.70
2023-01-23T09:32:24.734Z,87.70
2023-01-23T09:33:24.724Z,83.50
2023-01-23T09:34:24.703Z,82.60
2023-01-23T09:35:24.696Z,80.40
2023-01-23T09:36:41.346Z,82.40
2023-01-23T09:37:25.662Z,87.30
2023-01-23T09:38:24.679Z,78.70
2023-01-23T09:39:24.631Z,80.10
2023-01-23T09:40:24.621Z,80.60
2023-01-23T09:41:24.601Z,87.70
2023-01-23T09:42:24.592Z,74.20
2023-01-23T09:43:24.596Z,77.50
2023-01-23T09:44:24.576Z,77.30
2023-01-23T09:45:24.552Z,78.80
2023-01-23T09:46:24.552Z,76.10
2023-01-23T09:47:24.520Z,80.80
2023-01-23T09:48:24.540Z,72.10
2023-01-23T09:49:24.501Z,76.50
2023-01-23T09:50:24.490Z,78.00
2023-01-23T09:51:24.534Z,77.00
2023-01-23T09:52:24.468Z,75.50
2023-01-23T09:53:24.465Z,74.00
2023-01-23T09:54:24.436Z,69.90
2023-01-23T09:55:24.418Z,72.70
2023-01-23T09:56:24.415Z,71.20
2023-01-23T09:57:24.407Z,76.20
2023-01-23T09:58:24.398Z,87.50
2023-01-23T09:59:24.371Z,67.20
2023-01-23T10:00:24.354Z,90.80
2023-01-23T10:01:24.366Z,77.40
2023-01-23T10:02:26.746Z,77.80
2023-01-23T10:03:24.326Z,72.50
2023-01-23T10:04:24.307Z,76.60
2023-01-23T10:05:24.295Z,75.10
2023-01-23T10:06:24.277Z,77.10
2023-01-23T10:07:24.255Z,79.60
2023-01-23T10:08:24.266Z,81.40
2023-01-23T10:09:24.234Z,77.30
2023-01-23T10:10:24.515Z,74.20
2023-01-23T10:11:24.218Z,69.60
2023-01-23T10:12:24.202Z,75.10
2023-01-23T10:13:24.193Z,73.00
2023-01-23T10:14:24.206Z,72.70
2023-01-23T10:15:24.154Z,77.90
2023-01-23T10:16:24.195Z,73.30
2023-01-23T10:17:24.210Z,81.00
2023-01-23T10:18:24.131Z,68.90
2023-01-23T10:19:24.113Z,72.10
2023-01-23T10:20:24.123Z,73.90
2023-01-23T10:21:24.075Z,72.60
2023-01-23T10:22:24.064Z,72.30
2023-01-23T10:23:24.078Z,68.30
2023-01-23T10:24:24.042Z,66.40
2023-01-23T10:25:24.021Z,66.60
2023-01-23T10:26:24.016Z,66.80
2023-01-23T10:27:24.009Z,66.00
2023-01-23T10:28:24.006Z,63.60
2023-01-23T10:29:23.971Z,63.00
2023-01-23T10:30:24.287Z,60.30
2023-01-23T10:31:24.179Z,62.70
2023-01-23T10:32:23.938Z,64.50
2023-01-23T10:33:23.940Z,58.80
2023-01-23T10:34:23.924Z,60.00
2023-01-23T10:35:23.887Z,58.00
2023-01-23T10:36:24.367Z,58.60
2023-01-23T10:37:23.873Z,59.20
2023-01-23T10:38:23.876Z,59.30
2023-01-23T10:39:23.847Z,60.90
2023-01-23T10:40:23.832Z,59.20
2023-01-23T10:41:23.822Z,56.80
2023-01-23T10:42:23.797Z,58.40
2023-01-23T10:43:23.799Z,61.40
2023-01-23T10:44:23.778Z,58.10
2023-01-23T10:45:23.757Z,58.70
2023-01-23T10:46:23.847Z,57.40
2023-01-23T10:47:23.782Z,57.40
2023-01-23T10:48:23.737Z,55.70
2023-01-23T10:49:23.705Z,55.20
2023-01-23T10:50:23.751Z,54.10
2023-01-23T10:51:23.792Z,59.10
2023-01-23T10:52:23.680Z,63.60
2023-01-23T10:53:23.672Z,56.50
2023-01-23T10:54:31.723Z,56.40
2023-01-23T10:55:24.658Z,56.20
2023-01-23T10:56:23.677Z,54.70
2023-01-23T10:57:23.603Z,54.50
2023-01-23T10:58:23.607Z,59.30
2023-01-23T10:59:23.584Z,54.20
2023-01-23T11:00:23.567Z,55.70
2023-01-23T11:01:23.582Z,65.50
2023-01-23T11:02:23.702Z,55.80
2023-01-23T11:03:23.534Z,59.60
2023-01-23T11:04:23.525Z,58.30
2023-01-23T11:05:23.495Z,69.40
2023-01-23T11:06:23.492Z,78.60
2023-01-23T11:07:23.493Z,64.50
2023-01-23T11:08:23.472Z,59.00
2023-01-23T11:09:23.441Z,53.40
2023-01-23T11:10:23.456Z,55.90
2023-01-23T11:11:23.420Z,55.30
2023-01-23T11:12:23.420Z,57.50
2023-01-23T11:13:23.408Z,51.50
2023-01-23T11:14:23.388Z,51.80
2023-01-23T11:15:23.732Z,51.50
2023-01-23T11:16:23.542Z,53.30
2023-01-23T11:17:23.358Z,51.20
2023-01-23T11:18:23.340Z,53.20
2023-01-23T11:19:23.314Z,55.30
2023-01-23T11:20:23.310Z,54.10
2023-01-23T11:21:23.309Z,53.10
2023-01-23T11:22:23.279Z,52.30
2023-01-23T11:23:23.270Z,56.00
2023-01-23T11:24:37.799Z,50.80
2023-01-23T11:25:24.237Z,53.40
2023-01-23T11:26:23.229Z,51.10
2023-01-23T11:27:23.206Z,51.60
2023-01-23T11:28:23.270Z,51.60
2023-01-23T11:29:23.177Z,50.50
2023-01-23T11:30:23.177Z,55.70
2023-01-23T11:31:23.290Z,55.10
2023-01-23T11:32:23.278Z,52.40
2023-01-23T11:33:23.148Z,85.70
2023-01-23T11:34:23.125Z,132.20
2023-01-23T11:35:23.675Z,88.00
2023-01-23T11:36:23.097Z,104.80
2023-01-23T11:37:23.075Z,93.50
2023-01-23T11:38:30.556Z,101.20
2023-01-23T11:39:24.055Z,81.00
2023-01-23T11:40:23.060Z,77.30
2023-01-23T11:41:23.104Z,80.90
2023-01-23T11:42:23.019Z,70.00
2023-01-23T11:43:23.016Z,66.70
2023-01-23T11:44:23.648Z,63.10
2023-01-23T11:45:22.982Z,72.60
2023-01-23T11:46:23.022Z,74.20
2023-01-23T11:47:22.964Z,71.30
2023-01-23T11:48:22.955Z,72.40
2023-01-23T11:49:22.934Z,69.20
2023-01-23T11:50:22.916Z,63.00
2023-01-23T11:51:22.985Z,62.70
2023-01-23T11:52:22.894Z,58.50
2023-01-23T11:53:30.661Z,77.70
2023-01-23T11:54:23.882Z,61.60
2023-01-23T11:55:23.297Z,60.00
2023-01-23T11:56:22.831Z,58.60
2023-01-23T11:57:22.831Z,63.30
2023-01-23T11:58:26.663Z,55.50
2023-01-23T11:59:22.799Z,64.70
2023-01-23T12:00:23.106Z,63.40
2023-01-23T12:01:22.774Z,72.00
2023-01-23T12:02:22.792Z,84.10
2023-01-23T12:03:22.764Z,90.70
2023-01-23T12:04:22.733Z,72.40
2023-01-23T12:05:23.136Z,82.00
2023-01-23T12:06:22.706Z,140.10
2023-01-23T12:07:22.698Z,193.50
2023-01-23T12:08:22.698Z,86.80
2023-01-23T12:09:22.695Z,53.00
2023-01-23T12:10:22.763Z,139.10
2023-01-23T12:11:22.638Z,67.40
2023-01-23T12:12:22.635Z,83.80
2023-01-23T12:13:22.616Z,78.90
2023-01-23T12:14:22.611Z,55.60
2023-01-23T12:15:22.586Z,46.70
2023-01-23T12:16:22.652Z,52.90
2023-01-23T12:17:22.559Z,56.30
2023-01-23T12:18:22.560Z,50.80
2023-01-23T12:19:22.553Z,53.60
2023-01-23T12:20:22.967Z,49.90
2023-01-23T12:21:22.507Z,48.20
2023-01-23T12:22:22.496Z,49.50
2023-01-23T12:23:22.493Z,52.40
2023-01-23T12:24:22.501Z,48.10
2023-01-23T12:25:22.843Z,46.70
2023-01-23T12:26:22.555Z,47.30
2023-01-23T12:27:22.441Z,46.50
2023-01-23T12:28:22.433Z,52.30
2023-01-23T12:29:22.417Z,50.00
2023-01-23T12:30:22.663Z,54.40
2023-01-23T12:31:22.509Z,56.30
2023-01-23T12:32:22.549Z,52.30
2023-01-23T12:33:22.357Z,52.90
2023-01-23T12:34:22.346Z,54.40
2023-01-23T12:35:22.323Z,54.30
2023-01-23T12:36:22.314Z,51.70
2023-01-23T12:37:30.396Z,55.70
2023-01-23T12:38:23.290Z,54.00
2023-01-23T12:39:22.272Z,56.80
2023-01-23T12:40:22.806Z,60.70
2023-01-23T12:41:22.254Z,54.10
2023-01-23T12:42:22.250Z,56.90
2023-01-23T12:43:22.229Z,58.60
2023-01-23T12:44:22.208Z,58.90
2023-01-23T12:45:22.540Z,59.90
2023-01-23T12:46:22.180Z,57.40